Time;durP1;ratioP1;P1;durP2;ratioP2;P2;SDS_P1;SDS_P2;PMS_P1;PMS_P2;Temp;Humidity;BMP_temperature;BMP_pressure;BME280_temperature;BME280_humidity;BME280_pressure;Samples;Min_cycle;Max_cycle;Signal;HPM_P1;HPM_P2
2021/12/16 00:03:47;;;;;;;;;;;;;;;10.52;76.03;103358.41;5053773;28;20372;-60
2021/12/16 00:08:59;;;;;;;;;;;;;;;10.53;76.04;103362.06;5041330;28;19943;-60
2021/12/16 00:33:11;;;;;;;;;;;;;;;10.50;76.19;103352.22;5053429;28;19921;-60
2021/12/16 00:35:37;;;;;;;;;;;;;;;10.50;76.09;103352.22;5053456;28;20390;-60
2021/12/16 00:38:03;;;;;;;;;;;;;;;10.50;76.27;103359.69;5052801;28;19920;-60
2021/12/16 00:40:29;;;;;;;;;;;;;;;10.50;76.11;103356.91;5053620;28;19951;-60
2021/12/16 00:42:59;;;;;;;;;;;;;;;10.49;76.01;103372.72;5053304;28;19921;-60
2021/12/16 00:48:07;;;;;;;;;;;;;;;10.47;76.12;103373.94;5039433;28;19921;-60
2021/12/16 00:55:54;;;;;;;;;;;;;;;10.46;76.27;103363.91;5051227;28;19928;-58
2021/12/16 00:58:24;;;;;;;;;;;;;;;10.45;76.22;103364.94;5051557;28;20849;-59
2021/12/16 01:00:53;;;;;;;;;;;;;;;10.45;76.27;103371.38;5051887;28;19921;-59
2021/12/16 01:03:36;;;;;;;;;;;;;;;10.44;76.04;103364.06;5043094;28;20265;-59
2021/12/16 01:09:00;;;;;;;;;;;;;;;10.45;76.14;103364.94;5044973;28;19921;-60
2021/12/16 01:36:16;;;;;;;;;;;;;;;10.45;76.34;103385.25;5050408;28;19990;-60
2021/12/16 01:54:41;;;;;;;;;;;;;;;10.44;76.21;103410.41;5043498;28;19921;-60
2021/12/16 01:59:36;;;;;;;;;;;;;;;10.43;76.28;103400.38;5043379;28;19927;-60
2021/12/16 02:02:12;;;;;;;;;;;;;;;10.44;76.34;103402.09;5048970;28;20418;-61
2021/12/16 02:04:53;;;;;;;;;;;;;;;10.44;76.19;103402.94;5046321;28;19956;-61
2021/12/16 02:10:04;;;;;;;;;;;;;;;10.43;76.30;103409.56;5039133;28;19928;-60
2021/12/16 02:12:51;;;;;;;;;;;;;;;10.43;76.31;103411.47;5042847;28;19925;-60
2021/12/16 02:29:18;;;;;;;;;;;;;;;10.45;76.26;103412.13;5038951;28;20325;-60
2021/12/16 02:34:28;;;;;;;;;;;;;;;10.44;76.43;103411.28;5040803;28;19917;-60
2021/12/16 02:36:54;;;;;;;;;;;;;;;10.45;76.47;103426.00;5049036;28;19952;-60
2021/12/16 02:39:24;;;;;;;;;;;;;;;10.43;76.25;103423.44;5045648;28;19924;-60
2021/12/16 02:41:52;;;;;;;;;;;;;;;10.44;76.50;103424.28;5038299;28;19920;-61
2021/12/16 02:44:32;;;;;;;;;;;;;;;10.43;76.22;103429.00;5045929;28;20318;-60
2021/12/16 02:49:44;;;;;;;;;;;;;;;10.41;76.36;103431.06;5056136;28;19962;-60
2021/12/16 02:52:10;;;;;;;;;;;;;;;10.41;76.41;103428.31;5055857;28;19924;-60
2021/12/16 02:54:36;;;;;;;;;;;;;;;10.41;76.41;103431.06;5055991;28;20316;-60
2021/12/16 02:57:01;;;;;;;;;;;;;;;10.42;76.35;103432.81;5055412;28;20296;-60
2021/12/16 02:59:29;;;;;;;;;;;;;;;10.42;76.19;103430.06;5055111;28;19920;-60
2021/12/16 03:01:56;;;;;;;;;;;;;;;10.42;76.30;103426.41;5044424;28;19920;-60
2021/12/16 03:04:23;;;;;;;;;;;;;;;10.42;76.29;103427.28;5054244;28;19967;-60
2021/12/16 03:06:51;;;;;;;;;;;;;;;10.41;76.39;103425.53;5056164;28;19924;-60
2021/12/16 03:09:18;;;;;;;;;;;;;;;10.41;76.30;103424.66;5054952;28;19931;-60
2021/12/16 03:12:23;;;;;;;;;;;;;;;10.40;76.29;103426.59;5054991;28;19921;-60
2021/12/16 03:14:40;;;;;;;;;;;;;;;10.41;76.35;103422.75;5054367;28;19921;-60
2021/12/16 03:17:18;;;;;;;;;;;;;;;10.41;76.35;103431.06;5054126;28;19921;-60
2021/12/16 03:22:23;;;;;;;;;;;;;;;10.40;76.37;103418.25;5055081;28;20296;-60
2021/12/16 03:28:15;;;;;;;;;;;;;;;10.42;76.31;103427.28;5001405;28;19922;-60
2021/12/16 03:38:27;;;;;;;;;;;;;;;10.40;76.24;103432.13;5041033;28;19927;-60
2021/12/16 03:40:52;;;;;;;;;;;;;;;10.40;76.14;103423.81;5054947;28;20419;-60
2021/12/16 03:43:19;;;;;;;;;;;;;;;10.41;76.35;103428.31;5054035;28;20527;-60
2021/12/16 03:48:31;;;;;;;;;;;;;;;10.41;76.41;103433.84;5053964;28;19963;-60
2021/12/16 03:50:56;;;;;;;;;;;;;;;10.39;76.29;103433.19;5055064;28;19956;-60
2021/12/16 03:53:22;;;;;;;;;;;;;;;10.39;76.38;103435.97;5050644;28;20425;-60
2021/12/16 03:55:48;;;;;;;;;;;;;;;10.39;76.44;103443.44;5036833;28;19921;-60
2021/12/16 03:58:13;;;;;;;;;;;;;;;10.38;76.52;103442.59;5050661;28;19921;-61
2021/12/16 04:00:43;;;;;;;;;;;;;;;10.38;76.41;103447.28;5052557;28;19921;-60
2021/12/16 04:03:08;;;;;;;;;;;;;;;10.38;76.44;103445.38;5054289;28;20440;-60
2021/12/16 04:05:34;;;;;;;;;;;;;;;10.39;76.52;103449.00;5054476;28;20007;-60
2021/12/16 04:07:59;;;;;;;;;;;;;;;10.38;76.45;103447.28;5053878;28;19925;-60
2021/12/16 04:10:33;;;;;;;;;;;;;;;10.36;76.36;103447.44;5048265;28;20335;-60
2021/12/16 04:13:00;;;;;;;;;;;;;;;10.38;76.49;103450.91;5054485;28;20350;-60
2021/12/16 04:15:25;;;;;;;;;;;;;;;10.37;76.42;103449.16;5052499;28;19935;-60
2021/12/16 04:17:50;;;;;;;;;;;;;;;10.37;76.59;103453.88;5054338;28;19928;-61
2021/12/16 04:20:16;;;;;;;;;;;;;;;10.37;76.38;103451.94;5054208;28;19921;-61
2021/12/16 04:22:43;;;;;;;;;;;;;;;10.37;76.63;103440.84;5053583;28;20287;-60
2021/12/16 04:25:11;;;;;;;;;;;;;;;10.36;76.50;103444.69;5053474;28;19976;-60
2021/12/16 04:27:37;;;;;;;;;;;;;;;10.35;76.62;103448.50;5048189;28;19925;-60
2021/12/16 04:30:03;;;;;;;;;;;;;;;10.35;76.45;103447.66;5051024;28;19921;-60
2021/12/16 04:32:28;;;;;;;;;;;;;;;10.34;76.31;103445.94;5053375;28;19987;-60
2021/12/16 04:34:55;;;;;;;;;;;;;;;10.32;76.42;103446.97;5053356;28;19956;-60
2021/12/16 04:37:20;;;;;;;;;;;;;;;10.32;76.42;103435.00;5053947;28;20277;-61
2021/12/16 04:39:46;;;;;;;;;;;;;;;10.32;76.41;103444.19;5052427;28;19921;-60
2021/12/16 04:42:16;;;;;;;;;;;;;;;10.31;76.52;103439.69;5054064;28;19917;-61
2021/12/16 04:44:42;;;;;;;;;;;;;;;10.31;76.42;103448.03;5049137;28;19920;-60
2021/12/16 04:47:08;;;;;;;;;;;;;;;10.32;76.40;103440.56;5052569;28;19927;-60
2021/12/16 04:49:33;;;;;;;;;;;;;;;10.31;76.54;103439.69;5053196;28;19925;-60
2021/12/16 04:52:00;;;;;;;;;;;;;;;10.31;76.51;103445.25;5053374;28;20372;-60
2021/12/16 04:54:27;;;;;;;;;;;;;;;10.30;76.46;103440.75;5052166;28;19921;-60
2021/12/16 04:56:53;;;;;;;;;;;;;;;10.30;76.45;103440.75;5053309;28;20318;-60
2021/12/16 04:59:20;;;;;;;;;;;;;;;10.31;76.41;103445.25;5046035;28;20003;-60
2021/12/16 05:01:47;;;;;;;;;;;;;;;10.28;76.41;103439.22;5053040;28;20020;-60
2021/12/16 05:04:13;;;;;;;;;;;;;;;10.28;76.37;103433.66;5051658;28;19927;-60
2021/12/16 05:06:38;;;;;;;;;;;;;;;10.27;76.47;103443.91;5052744;28;20007;-60
2021/12/16 05:09:05;;;;;;;;;;;;;;;10.26;76.17;103444.09;5052013;28;20422;-60
2021/12/16 05:11:33;;;;;;;;;;;;;;;10.24;76.42;103441.47;5052679;28;19963;-60
2021/12/16 05:13:59;;;;;;;;;;;;;;;10.24;76.36;103443.38;5053654;28;20314;-60
2021/12/16 05:16:24;;;;;;;;;;;;;;;10.21;76.40;103440.97;5049131;28;19921;-60
2021/12/16 05:18:52;;;;;;;;;;;;;;;10.19;76.56;103445.84;5047420;28;19920;-60
2021/12/16 05:21:44;;;;;;;;;;;;;;;10.17;76.21;103443.25;5053168;28;19920;-60
2021/12/16 05:24:25;;;;;;;;;;;;;;;10.16;76.27;103447.09;5048506;28;19929;-60
2021/12/16 05:26:51;;;;;;;;;;;;;;;10.15;76.26;103450.06;5033079;28;19967;-60
2021/12/16 05:29:16;;;;;;;;;;;;;;;10.13;76.28;103449.38;5034266;28;19971;-60
2021/12/16 05:31:41;;;;;;;;;;;;;;;10.11;76.24;103452.34;5043811;28;19921;-60
2021/12/16 05:34:07;;;;;;;;;;;;;;;10.08;76.28;103459.13;5037705;28;19980;-60
2021/12/16 05:36:32;;;;;;;;;;;;;;;10.06;76.39;103465.88;5047471;28;20411;-60
2021/12/16 05:38:58;;;;;;;;;;;;;;;10.05;76.50;103455.84;5035814;28;20006;-60
2021/12/16 05:41:23;;;;;;;;;;;;;;;10.03;76.46;103467.16;5042136;28;19940;-60
2021/12/16 05:43:48;;;;;;;;;;;;;;;10.01;76.17;103465.59;5045731;28;20011;-59
2021/12/16 05:46:14;;;;;;;;;;;;;;;9.97;76.04;103467.88;5050035;28;19935;-60
2021/12/16 05:48:42;;;;;;;;;;;;;;;9.94;76.10;103470.16;5051858;28;20024;-59
2021/12/16 05:51:17;;;;;;;;;;;;;;;9.92;76.16;103475.03;5049357;28;19925;-60
2021/12/16 05:53:43;;;;;;;;;;;;;;;9.90;76.08;103474.34;5049455;28;19925;-60
2021/12/16 05:56:08;;;;;;;;;;;;;;;9.86;76.03;103475.75;5045190;28;19921;-60
2021/12/16 05:58:34;;;;;;;;;;;;;;;9.83;76.13;103477.00;5038361;28;19925;-60
2021/12/16 06:01:01;;;;;;;;;;;;;;;9.79;76.08;103487.63;5012233;28;19929;-60
2021/12/16 06:03:27;;;;;;;;;;;;;;;9.76;75.84;103492.66;5036117;28;19959;-60
2021/12/16 06:05:52;;;;;;;;;;;;;;;9.72;75.63;103500.47;5032272;28;20399;-59
2021/12/16 06:08:21;;;;;;;;;;;;;;;9.70;75.80;103499.78;5039121;28;21760;-59
2021/12/16 06:13:35;;;;;;;;;;;;;;;9.66;75.82;103501.19;5038278;28;19921;-59
2021/12/16 06:22:26;;;;;;;;;;;;;;;9.64;75.80;103499.69;5023740;28;20297;-59
2021/12/16 06:27:06;;;;;;;;;;;;;;;9.52;75.18;103502.84;5035888;28;20035;-59
2021/12/16 06:29:33;;;;;;;;;;;;;;;9.49;75.42;103507.91;5033711;28;19968;-59
2021/12/16 06:31:58;;;;;;;;;;;;;;;9.47;75.45;103510.84;5040807;28;19990;-59
2021/12/16 06:34:24;;;;;;;;;;;;;;;9.46;75.37;103517.44;5031883;28;20364;-59
2021/12/16 06:36:49;;;;;;;;;;;;;;;9.44;75.56;103511.22;5034080;28;19925;-59
2021/12/16 06:39:15;;;;;;;;;;;;;;;9.42;75.36;103512.44;5034266;28;19967;-59
2021/12/16 06:41:40;;;;;;;;;;;;;;;9.39;75.21;103510.00;5028901;28;19963;-59
2021/12/16 06:44:14;;;;;;;;;;;;;;;9.36;75.19;103511.25;5025035;28;20000;-59
2021/12/16 06:46:43;;;;;;;;;;;;;;;9.34;75.17;103516.09;5029153;28;19930;-59
2021/12/16 06:49:11;;;;;;;;;;;;;;;9.30;74.97;103506.41;5032589;28;19921;-59
2021/12/16 06:51:56;;;;;;;;;;;;;;;9.27;75.25;103518.72;5033299;28;19925;-59
2021/12/16 06:54:27;;;;;;;;;;;;;;;9.25;75.50;103515.28;5025735;28;19975;-59
2021/12/16 06:59:29;;;;;;;;;;;;;;;9.18;75.37;103518.94;5055643;28;19925;-59
2021/12/16 07:02:13;;;;;;;;;;;;;;;9.16;75.45;103529.34;5054066;28;20028;-59
2021/12/16 07:04:39;;;;;;;;;;;;;;;9.16;75.01;103526.59;5051556;28;19928;-59
2021/12/16 07:07:05;;;;;;;;;;;;;;;9.15;75.09;103517.38;5047007;28;19921;-60
2021/12/16 07:09:30;;;;;;;;;;;;;;;9.15;75.01;103527.59;5058101;28;19927;-59
2021/12/16 07:11:57;;;;;;;;;;;;;;;9.13;75.25;103529.72;5052909;28;19925;-59
2021/12/16 07:14:34;;;;;;;;;;;;;;;9.12;74.81;103539.03;5042975;28;19924;-59
2021/12/16 07:16:59;;;;;;;;;;;;;;;9.07;74.97;103537.66;5041168;28;19927;-59
2021/12/16 07:19:24;;;;;;;;;;;;;;;9.04;74.51;103554.66;5043330;28;19921;-59
2021/12/16 07:21:50;;;;;;;;;;;;;;;9.03;74.75;103561.22;5049823;28;19921;-60
2021/12/16 07:24:21;;;;;;;;;;;;;;;9.03;75.05;103555.69;5044718;28;20388;-59
2021/12/16 07:26:47;;;;;;;;;;;;;;;9.00;74.63;103560.72;5037895;28;20414;-58
2021/12/16 07:29:12;;;;;;;;;;;;;;;8.96;74.82;103563.00;5035387;28;19925;-58
2021/12/16 07:31:39;;;;;;;;;;;;;;;8.95;74.60;103572.31;5050524;28;19975;-59
2021/12/16 07:34:05;;;;;;;;;;;;;;;8.94;74.68;103576.16;5048081;28;19928;-59
2021/12/16 07:36:31;;;;;;;;;;;;;;;8.93;74.59;103584.66;5044976;28;19921;-59
2021/12/16 07:38:57;;;;;;;;;;;;;;;8.91;74.63;103587.56;5047337;28;20017;-59
2021/12/16 07:41:25;;;;;;;;;;;;;;;8.89;74.77;103588.81;5052422;28;20015;-59
2021/12/16 07:44:09;;;;;;;;;;;;;;;8.87;74.52;103585.31;5052292;28;19927;-59
2021/12/16 07:46:35;;;;;;;;;;;;;;;8.84;74.42;103581.00;5040071;28;19921;-60
2021/12/16 07:49:00;;;;;;;;;;;;;;;8.82;74.46;103595.03;5038362;28;19921;-59
2021/12/16 07:51:25;;;;;;;;;;;;;;;8.81;74.36;103607.16;5054323;28;19921;-59
2021/12/16 07:53:50;;;;;;;;;;;;;;;8.80;74.55;103607.31;5037490;28;19971;-61
2021/12/16 07:56:16;;;;;;;;;;;;;;;8.80;74.42;103608.19;5039064;28;19940;-60
2021/12/16 07:58:41;;;;;;;;;;;;;;;8.78;74.34;103617.72;5043879;28;19929;-59
2021/12/16 08:01:09;;;;;;;;;;;;;;;8.75;74.48;103620.81;5039384;28;20343;-59
2021/12/16 08:03:36;;;;;;;;;;;;;;;8.75;74.45;103626.38;5043285;28;19921;-59
2021/12/16 08:06:05;;;;;;;;;;;;;;;8.74;74.80;103630.19;5049741;28;19929;-58
2021/12/16 08:08:30;;;;;;;;;;;;;;;8.72;74.17;103630.34;5048983;28;20268;-58
2021/12/16 08:10:56;;;;;;;;;;;;;;;8.70;74.45;103634.34;5046565;28;19940;-60
2021/12/16 08:13:21;;;;;;;;;;;;;;;8.70;74.57;103637.09;5046101;28;19921;-59
2021/12/16 08:15:47;;;;;;;;;;;;;;;8.70;74.65;103639.88;5051469;28;19964;-60
2021/12/16 08:18:12;;;;;;;;;;;;;;;8.67;74.59;103640.22;5052525;28;19921;-60
2021/12/16 08:20:38;;;;;;;;;;;;;;;8.67;74.61;103649.38;5053371;28;19917;-60
2021/12/16 08:23:03;;;;;;;;;;;;;;;8.66;74.68;103638.50;5044830;28;19920;-61
2021/12/16 08:25:30;;;;;;;;;;;;;;;8.65;74.11;103657.00;5048141;28;19927;-62
2021/12/16 08:27:59;;;;;;;;;;;;;;;8.76;75.18;103653.00;5048741;28;20043;-60
2021/12/16 08:30:27;;;;;;;;;;;;;;;8.82;74.72;103661.50;5049824;28;20374;-60
2021/12/16 08:32:53;;;;;;;;;;;;;;;8.78;74.29;103653.72;5044480;28;19927;-60
2021/12/16 08:35:19;;;;;;;;;;;;;;;8.75;74.31;103665.13;5050967;28;19921;-60
2021/12/16 08:37:44;;;;;;;;;;;;;;;8.73;74.59;103661.69;5052577;28;19921;-60
2021/12/16 08:40:12;;;;;;;;;;;;;;;8.70;74.58;103671.19;5048075;28;19935;-60
2021/12/16 08:42:38;;;;;;;;;;;;;;;8.69;73.94;103668.59;5051201;28;19998;-60
2021/12/16 08:45:09;;;;;;;;;;;;;;;8.63;74.28;103666.50;5051496;28;19921;-60
2021/12/16 08:47:34;;;;;;;;;;;;;;;8.71;74.17;103663.75;5051288;28;20043;-61
2021/12/16 08:49:59;;;;;;;;;;;;;;;8.72;74.34;103671.00;5035562;28;20095;-61
2021/12/16 08:52:25;;;;;;;;;;;;;;;8.74;74.36;103674.47;5052117;28;19921;-61
2021/12/16 08:54:50;;;;;;;;;;;;;;;8.77;74.10;103685.22;5050762;28;19927;-61
2021/12/16 08:57:16;;;;;;;;;;;;;;;8.80;74.30;103679.31;5048541;28;20021;-61
2021/12/16 08:59:43;;;;;;;;;;;;;;;8.82;74.12;103682.78;5027058;28;20393;-59
2021/12/16 09:02:09;;;;;;;;;;;;;;;8.85;74.62;103701.84;5024545;28;19940;-59
2021/12/16 09:04:36;;;;;;;;;;;;;;;8.88;74.50;103695.94;5031964;28;19917;-59
2021/12/16 09:07:03;;;;;;;;;;;;;;;8.91;74.24;103698.38;5031557;28;19925;-59
2021/12/16 09:09:33;;;;;;;;;;;;;;;8.93;74.29;103706.53;5032144;28;19917;-59
2021/12/16 09:14:50;;;;;;;;;;;;;;;8.99;74.32;103703.91;5001159;28;19921;-59
2021/12/16 09:17:15;;;;;;;;;;;;;;;9.01;74.39;103693.53;5030599;28;19921;-59
2021/12/16 09:19:46;;;;;;;;;;;;;;;9.04;74.48;103698.75;5023444;28;20442;-59
2021/12/16 09:22:15;;;;;;;;;;;;;;;9.06;74.30;103704.94;5030668;28;20454;-59
2021/12/16 09:24:40;;;;;;;;;;;;;;;9.10;75.00;103711.88;5031032;28;19921;-59
2021/12/16 09:27:05;;;;;;;;;;;;;;;9.15;74.58;103707.72;5039497;28;19921;-59
2021/12/16 09:29:31;;;;;;;;;;;;;;;9.18;75.00;103707.38;5034179;28;20288;-59
2021/12/16 09:31:57;;;;;;;;;;;;;;;9.23;74.68;103711.34;5014018;28;20392;-58
2021/12/16 09:34:22;;;;;;;;;;;;;;;9.29;75.00;103716.22;5029444;28;19921;-59
2021/12/16 09:36:48;;;;;;;;;;;;;;;9.40;75.11;103708.59;5032111;28;19925;-59
2021/12/16 09:39:16;;;;;;;;;;;;;;;9.48;74.84;103712.19;5020723;28;19937;-59
2021/12/16 09:41:47;;;;;;;;;;;;;;;9.57;74.72;103711.13;5031524;28;19925;-58
2021/12/16 09:44:13;;;;;;;;;;;;;;;9.67;74.92;103715.59;5031406;28;19924;-58
2021/12/16 09:46:40;;;;;;;;;;;;;;;9.71;74.82;103705.91;5029331;28;20008;-59
2021/12/16 09:49:05;;;;;;;;;;;;;;;9.76;74.86;103712.66;5032191;28;20016;-58
2021/12/16 09:51:32;;;;;;;;;;;;;;;9.81;74.80;103718.50;5031807;28;20059;-59
2021/12/16 09:54:00;;;;;;;;;;;;;;;9.91;75.04;103710.00;5026599;28;20381;-58
2021/12/16 09:56:27;;;;;;;;;;;;;;;10.03;74.96;103719.66;5019013;28;19928;-58
2021/12/16 09:58:53;;;;;;;;;;;;;;;10.17;74.99;103711.63;5044686;28;19921;-58
2021/12/16 10:01:19;;;;;;;;;;;;;;;10.30;74.67;103707.25;5050995;28;19938;-58
2021/12/16 10:03:46;;;;;;;;;;;;;;;10.44;74.94;103707.53;5050885;28;19921;-58
2021/12/16 10:06:12;;;;;;;;;;;;;;;10.54;74.94;103714.59;5050855;28;19935;-58
2021/12/16 10:08:37;;;;;;;;;;;;;;;10.66;74.70;103711.38;5051237;28;19920;-58
2021/12/16 10:11:04;;;;;;;;;;;;;;;10.77;74.70;103708.19;5050233;28;20398;-58
2021/12/16 10:13:40;;;;;;;;;;;;;;;10.87;74.56;103719.91;5043032;28;20348;-58
2021/12/16 10:18:34;;;;;;;;;;;;;;;11.02;74.68;103718.03;5051686;28;19952;-58
2021/12/16 10:21:02;;;;;;;;;;;;;;;11.11;74.59;103712.41;5050403;28;19971;-58
2021/12/16 10:23:29;;;;;;;;;;;;;;;11.22;74.69;103715.63;5050780;28;19929;-59
2021/12/16 10:25:56;;;;;;;;;;;;;;;11.32;74.56;103718.16;5050336;28;19929;-59
2021/12/16 10:28:25;;;;;;;;;;;;;;;11.36;74.16;103719.50;5050462;28;19928;-58
2021/12/16 10:30:50;;;;;;;;;;;;;;;11.41;74.37;103719.78;5049310;28;19933;-58
2021/12/16 10:33:18;;;;;;;;;;;;;;;11.44;74.45;103705.50;5050635;28;20069;-59
2021/12/16 10:35:47;;;;;;;;;;;;;;;11.45;74.69;103712.78;5050604;28;19920;-58
2021/12/16 10:38:13;;;;;;;;;;;;;;;11.46;74.61;103714.50;5050628;28;19925;-59
2021/12/16 10:40:50;;;;;;;;;;;;;;;11.45;74.49;103712.78;5049560;28;19966;-58
2021/12/16 10:43:15;;;;;;;;;;;;;;;11.44;74.34;103711.06;5050951;28;20393;-59
2021/12/16 10:45:40;;;;;;;;;;;;;;;11.46;74.58;103713.66;5051603;28;20012;-58
2021/12/16 10:48:11;;;;;;;;;;;;;;;11.45;74.37;103712.78;5051295;28;19970;-58
2021/12/16 10:50:54;;;;;;;;;;;;;;;11.53;74.43;103721.06;5043868;28;19995;-59
2021/12/16 10:53:39;;;;;;;;;;;;;;;11.62;74.60;103719.03;5052080;28;20007;-59
2021/12/16 10:56:04;;;;;;;;;;;;;;;11.64;74.39;103716.94;5008667;28;20299;-59
2021/12/16 10:58:51;;;;;;;;;;;;;;;11.63;74.32;103708.78;5051679;28;19921;-59
2021/12/16 11:01:35;;;;;;;;;;;;;;;11.61;74.48;103717.31;5031124;28;21271;-59
2021/12/16 11:04:00;;;;;;;;;;;;;;;11.67;74.55;103716.56;5031092;28;19917;-59
2021/12/16 11:06:27;;;;;;;;;;;;;;;11.72;74.25;103718.78;5039098;28;19931;-59
2021/12/16 11:08:52;;;;;;;;;;;;;;;11.74;74.20;103716.66;5049157;28;19921;-59
2021/12/16 11:11:25;;;;;;;;;;;;;;;11.75;74.63;103727.63;5053591;28;19920;-59
2021/12/16 11:14:00;;;;;;;;;;;;;;;11.80;74.59;103727.03;5054674;28;20020;-59
2021/12/16 11:16:30;;;;;;;;;;;;;;;11.83;74.33;103720.19;5052722;28;19932;-58
2021/12/16 11:18:55;;;;;;;;;;;;;;;11.84;74.25;103727.56;5055042;28;19917;-59
2021/12/16 11:21:20;;;;;;;;;;;;;;;11.85;74.49;103726.50;5055269;28;19916;-59
2021/12/16 11:23:45;;;;;;;;;;;;;;;11.82;74.11;103733.25;5049827;28;19929;-59
2021/12/16 11:26:18;;;;;;;;;;;;;;;11.80;74.34;103732.59;5050278;28;19975;-59
2021/12/16 11:28:45;;;;;;;;;;;;;;;11.79;74.27;103737.31;5054976;28;19921;-59
2021/12/16 11:31:19;;;;;;;;;;;;;;;11.80;74.25;103721.47;5052905;28;19921;-59
2021/12/16 11:33:48;;;;;;;;;;;;;;;11.79;74.27;103731.75;5052332;28;19974;-59
2021/12/16 11:36:13;;;;;;;;;;;;;;;11.79;74.19;103736.44;5053824;28;19921;-58
2021/12/16 11:38:48;;;;;;;;;;;;;;;11.79;74.37;103722.53;5050442;28;20299;-58
2021/12/16 11:41:21;;;;;;;;;;;;;;;11.81;74.19;103723.19;5053671;28;19929;-58
2021/12/16 11:43:46;;;;;;;;;;;;;;;11.78;74.37;103730.00;5051024;28;19932;-58
2021/12/16 11:46:14;;;;;;;;;;;;;;;11.75;74.10;103718.38;5050278;28;19924;-58
2021/12/16 11:48:40;;;;;;;;;;;;;;;11.75;74.36;103715.59;5052513;28;20330;-58
2021/12/16 11:51:23;;;;;;;;;;;;;;;11.72;74.01;103714.06;5052900;28;19928;-60
2021/12/16 11:53:52;;;;;;;;;;;;;;;11.75;74.04;103708.13;5048974;28;19929;-60
2021/12/16 11:56:18;;;;;;;;;;;;;;;11.78;74.13;103718.84;5051135;28;19921;-59
2021/12/16 11:58:44;;;;;;;;;;;;;;;11.83;74.16;103720.19;5053228;28;19927;-60
2021/12/16 12:01:20;;;;;;;;;;;;;;;11.85;74.08;103707.00;5053987;28;20291;-60
2021/12/16 12:03:46;;;;;;;;;;;;;;;11.84;74.29;103714.50;5051958;28;19920;-59
2021/12/16 12:06:18;;;;;;;;;;;;;;;11.85;74.26;103715.34;5050963;28;19951;-58
2021/12/16 12:08:45;;;;;;;;;;;;;;;11.85;74.27;103704.22;5050969;28;20439;-60
2021/12/16 12:11:43;;;;;;;;;;;;;;;11.84;74.27;103708.06;5051993;28;20371;-61
2021/12/16 12:14:13;;;;;;;;;;;;;;;11.83;74.26;103717.41;5038245;28;19970;-61
2021/12/16 12:16:42;;;;;;;;;;;;;;;11.84;74.20;103714.50;5047638;28;19971;-61
2021/12/16 12:19:08;;;;;;;;;;;;;;;11.83;73.94;103709.06;5048699;28;20410;-59
2021/12/16 12:21:38;;;;;;;;;;;;;;;11.82;73.95;103712.91;5050531;28;20007;-60
2021/12/16 12:24:10;;;;;;;;;;;;;;;11.83;73.94;103715.56;5048292;28;19956;-59
2021/12/16 12:26:38;;;;;;;;;;;;;;;11.82;74.03;103711.00;5049515;28;19966;-59
2021/12/16 12:29:06;;;;;;;;;;;;;;;11.82;74.02;103712.91;5048997;28;19974;-58
2021/12/16 12:31:31;;;;;;;;;;;;;;;11.88;75.39;103704.72;5049744;28;20394;-57
2021/12/16 12:33:57;;;;;;;;;;;;;;;12.00;74.16;103708.72;5050643;28;19925;-58
2021/12/16 12:36:23;;;;;;;;;;;;;;;11.98;74.06;103710.81;5051718;28;19936;-58
2021/12/16 12:38:48;;;;;;;;;;;;;;;11.95;74.09;103708.44;5051851;28;19924;-58
2021/12/16 12:41:14;;;;;;;;;;;;;;;11.92;73.73;103706.03;5039161;28;19921;-58
2021/12/16 12:43:39;;;;;;;;;;;;;;;11.89;73.89;103703.66;5047741;28;19932;-58
2021/12/16 12:46:06;;;;;;;;;;;;;;;11.88;73.92;103712.19;5051551;28;20019;-58
2021/12/16 12:48:33;;;;;;;;;;;;;;;11.85;73.61;103707.88;5051780;28;19935;-58
2021/12/16 12:50:58;;;;;;;;;;;;;;;11.84;74.08;103706.16;5052573;28;20000;-58
2021/12/16 12:53:46;;;;;;;;;;;;;;;11.84;74.04;103708.94;5053196;28;20416;-58
2021/12/16 12:56:14;;;;;;;;;;;;;;;11.83;73.68;103706.28;5035743;28;20268;-58
2021/12/16 12:58:50;;;;;;;;;;;;;;;11.82;73.83;103704.56;5051460;28;19947;-58
2021/12/16 13:01:15;;;;;;;;;;;;;;;11.80;73.82;103696.44;5048225;28;19920;-58
2021/12/16 13:03:41;;;;;;;;;;;;;;;11.79;73.72;103691.94;5042861;28;19974;-59
2021/12/16 13:06:12;;;;;;;;;;;;;;;11.78;73.84;103691.03;5044702;28;19929;-58
2021/12/16 13:08:41;;;;;;;;;;;;;;;11.79;73.95;103694.72;5050859;28;19960;-58
2021/12/16 13:11:12;;;;;;;;;;;;;;;11.79;73.77;103703.06;5046854;28;19979;-58
2021/12/16 13:13:55;;;;;;;;;;;;;;;11.77;73.58;103692.09;5038663;28;20331;-58
2021/12/16 13:25:21;;;;;;;;;;;;;;;11.74;73.53;103688.81;5051247;28;19928;-58
2021/12/16 13:27:44;;;;;;;;;;;;;;;11.74;73.37;103692.47;5046794;28;19925;-57
2021/12/16 13:32:45;;;;;;;;;;;;;;;11.73;73.63;103699.09;5043578;28;19928;-59
2021/12/16 13:37:47;;;;;;;;;;;;;;;11.74;73.61;103697.19;5049558;28;19920;-59
2021/12/16 13:40:30;;;;;;;;;;;;;;;11.75;73.67;103701.69;5041162;28;19920;-59
2021/12/16 13:42:58;;;;;;;;;;;;;;;11.73;73.14;103701.88;5051636;28;20442;-59
2021/12/16 13:45:34;;;;;;;;;;;;;;;11.72;73.63;103697.38;5044810;28;20322;-58
2021/12/16 14:02:36;;;;;;;;;;;;;;;12.00;73.34;103705.94;5049823;28;19951;-59
2021/12/16 14:05:18;;;;;;;;;;;;;;;11.95;73.25;103705.66;5046342;28;19920;-58
2021/12/16 14:07:55;;;;;;;;;;;;;;;11.92;72.97;103707.97;5041167;28;20449;-58
2021/12/16 14:10:43;;;;;;;;;;;;;;;11.88;72.80;103707.50;5038956;28;19921;-59
2021/12/16 14:16:26;;;;;;;;;;;;;;;11.77;72.94;103707.94;5044766;28;19932;-58
2021/12/16 14:31:08;;;;;;;;;;;;;;;11.72;72.88;103713.22;5041438;28;19927;-58
2021/12/16 14:36:28;;;;;;;;;;;;;;;11.67;72.74;103721.25;5046949;28;20318;-58
2021/12/16 14:42:06;;;;;;;;;;;;;;;11.65;72.10;103717.81;5048464;28;19943;-59
2021/12/16 14:44:17;;;;;;;;;;;;;;;11.65;72.78;103728.94;5044870;28;19921;-59
2021/12/16 14:46:49;;;;;;;;;;;;;;;11.65;72.35;103734.50;5039876;28;20360;-59
2021/12/16 14:49:14;;;;;;;;;;;;;;;11.63;72.43;103733.81;5045817;28;19984;-59
2021/12/16 14:51:40;;;;;;;;;;;;;;;11.62;72.43;103737.66;5055390;28;19947;-59
2021/12/16 14:54:07;;;;;;;;;;;;;;;11.57;72.86;103741.00;5051311;28;20331;-59
2021/12/16 14:56:36;;;;;;;;;;;;;;;11.54;72.55;103733.91;5051744;28;20303;-60
2021/12/16 14:59:11;;;;;;;;;;;;;;;11.51;72.57;103730.63;5049939;28;19929;-59
2021/12/16 15:01:41;;;;;;;;;;;;;;;11.48;72.77;103739.38;5048043;28;19921;-59
2021/12/16 15:04:08;;;;;;;;;;;;;;;11.45;72.94;103740.59;5046445;28;19932;-60
2021/12/16 15:06:42;;;;;;;;;;;;;;;11.42;72.95;103743.75;5051820;28;20387;-60
2021/12/16 15:09:24;;;;;;;;;;;;;;;11.39;72.99;103740.50;5043196;28;20314;-60
2021/12/16 15:17:36;;;;;;;;;;;;;;;11.28;72.97;103739.03;5021229;28;20544;-60
2021/12/16 15:39:24;;;;;;;;;;;;;;;11.03;73.00;103749.47;5053253;28;19917;-60
2021/12/16 15:44:44;;;;;;;;;;;;;;;10.98;72.99;103751.97;5052179;28;20367;-59
2021/12/16 15:47:09;;;;;;;;;;;;;;;10.96;72.76;103754.91;5048452;28;19925;-60
2021/12/16 15:49:34;;;;;;;;;;;;;;;10.93;73.09;103760.88;5045757;28;20295;-58
2021/12/16 15:52:01;;;;;;;;;;;;;;;10.99;73.29;103757.31;5055122;28;19927;-59
2021/12/16 15:54:30;;;;;;;;;;;;;;;10.98;72.98;103761.16;5052368;28;19920;-59
2021/12/16 15:56:55;;;;;;;;;;;;;;;10.97;73.11;103773.34;5050304;28;20008;-59
2021/12/16 15:59:21;;;;;;;;;;;;;;;10.95;72.92;103767.09;5048519;28;20035;-59
2021/12/16 16:01:52;;;;;;;;;;;;;;;10.93;73.15;103768.34;5047819;28;19978;-59
2021/12/16 16:04:17;;;;;;;;;;;;;;;10.91;72.90;103768.50;5051832;28;19931;-60
2021/12/16 16:06:43;;;;;;;;;;;;;;;10.90;73.01;103775.13;5051238;28;19928;-61
2021/12/16 16:09:10;;;;;;;;;;;;;;;10.89;72.85;103778.09;5051961;28;19924;-61
2021/12/16 16:11:38;;;;;;;;;;;;;;;10.87;72.89;103781.03;5051629;28;20435;-61
2021/12/16 16:14:04;;;;;;;;;;;;;;;10.87;73.09;103791.28;5042229;28;20439;-61
2021/12/16 16:16:35;;;;;;;;;;;;;;;10.86;73.11;103787.66;5051142;28;19975;-61
2021/12/16 16:19:03;;;;;;;;;;;;;;;10.86;72.92;103789.56;5047858;28;20047;-61
2021/12/16 16:21:35;;;;;;;;;;;;;;;10.85;73.01;103788.72;5050593;28;19921;-60
2021/12/16 16:24:03;;;;;;;;;;;;;;;10.84;72.61;103795.28;5049221;28;19928;-61